Time;durP1;ratioP1;P1;durP2;ratioP2;P2;SDS_P1;SDS_P2;PMS_P1;PMS_P2;Temp;Humidity;BMP_temperature;BMP_pressure;BME280_temperature;BME280_humidity;BME280_pressure;Samples;Min_cycle;Max_cycle;Signal;HPM_P1;HPM_P2
2021/11/13 00:02:18;;;;;;;6.88;4.70;;;22.20;51.90;;;;;;5205999;28;20059;-55
2021/11/13 00:04:51;;;;;;;5.68;3.72;;;22.20;51.80;;;;;;5216543;28;20043;-58
2021/11/13 00:07:23;;;;;;;4.72;3.78;;;22.20;51.80;;;;;;5224146;28;21438;-54
2021/11/13 00:09:56;;;;;;;6.53;4.30;;;22.20;51.80;;;;;;5220028;28;20048;-56
2021/11/13 00:12:28;;;;;;;6.15;4.50;;;22.20;51.80;;;;;;5222876;28;20051;-52
2021/11/13 00:15:03;;;;;;;5.93;4.13;;;22.20;51.80;;;;;;5225574;28;20044;-54
2021/11/13 00:17:36;;;;;;;6.15;4.15;;;22.20;51.80;;;;;;5225140;28;20617;-54
2021/11/13 00:20:09;;;;;;;11.20;4.50;;;22.20;51.70;;;;;;5202731;28;20048;-51
2021/11/13 00:22:42;;;;;;;7.97;4.32;;;22.20;51.70;;;;;;5239453;28;20046;-53
2021/11/13 00:25:15;;;;;;;6.80;4.15;;;22.20;51.70;;;;;;5223984;28;20044;-50
2021/11/13 00:27:48;;;;;;;8.88;4.97;;;22.20;51.80;;;;;;5229026;28;20507;-59
2021/11/13 00:30:21;;;;;;;4.93;3.80;;;22.20;51.80;;;;;;5247755;28;20039;-53
2021/11/13 00:32:54;;;;;;;4.97;3.97;;;22.20;51.80;;;;;;5243127;28;20048;-59
2021/11/13 00:35:26;;;;;;;6.15;4.10;;;22.10;51.70;;;;;;5241629;28;20048;-56
2021/11/13 00:37:59;;;;;;;5.35;3.90;;;22.20;51.90;;;;;;5249489;28;20484;-54
2021/11/13 00:40:31;;;;;;;5.63;3.72;;;22.10;51.80;;;;;;5238824;28;20034;-53
2021/11/13 00:43:07;;;;;;;9.32;4.40;;;22.10;51.80;;;;;;5247409;28;20454;-53
2021/11/13 00:45:39;;;;;;;7.53;4.35;;;22.10;51.70;;;;;;5247977;28;20052;-51
2021/11/13 00:48:12;;;;;;;8.32;4.30;;;22.10;51.70;;;;;;5237636;28;20961;-55
2021/11/13 00:50:47;;;;;;;5.70;4.10;;;22.10;51.70;;;;;;5251719;28;20043;-56
2021/11/13 00:53:19;;;;;;;7.15;4.38;;;22.10;51.70;;;;;;5243825;28;21178;-56
2021/11/13 00:55:52;;;;;;;4.90;3.60;;;22.10;51.70;;;;;;5251710;28;20047;-55
2021/11/13 00:58:25;;;;;;;5.80;3.65;;;22.10;51.80;;;;;;5239521;28;20145;-51
2021/11/13 01:00:57;;;;;;;5.00;3.67;;;22.10;51.70;;;;;;5227518;28;20040;-59
2021/11/13 01:03:30;;;;;;;4.57;3.58;;;22.10;51.70;;;;;;5249251;28;20145;-52
2021/11/13 01:06:03;;;;;;;5.38;4.10;;;22.10;51.70;;;;;;5243036;27;20061;-55
2021/11/13 01:08:35;;;;;;;5.38;4.18;;;22.10;51.70;;;;;;5246210;28;20567;-53
2021/11/13 01:11:08;;;;;;;6.20;4.00;;;22.10;51.70;;;;;;5239841;28;20432;-55
2021/11/13 01:13:41;;;;;;;5.00;4.18;;;22.10;51.70;;;;;;5231212;28;20056;-53
2021/11/13 01:16:15;;;;;;;5.72;4.40;;;22.10;51.70;;;;;;5249251;28;20052;-55
2021/11/13 01:18:48;;;;;;;5.72;4.55;;;22.10;51.70;;;;;;5251176;28;20659;-49
2021/11/13 01:21:24;;;;;;;5.72;4.03;;;22.00;51.60;;;;;;5230080;28;20605;-55
2021/11/13 01:23:57;;;;;;;4.93;4.00;;;22.00;51.60;;;;;;5233806;28;20044;-54
2021/11/13 01:26:34;;;;;;;7.82;4.10;;;22.10;51.60;;;;;;5258544;28;20058;-53
2021/11/13 01:29:06;;;;;;;6.70;4.33;;;22.10;51.60;;;;;;5246927;28;20063;-52
2021/11/13 01:31:39;;;;;;;5.00;3.57;;;22.10;51.60;;;;;;5249558;28;20047;-52
2021/11/13 01:34:11;;;;;;;4.05;3.65;;;22.10;51.70;;;;;;5241731;28;20047;-52
2021/11/13 01:36:44;;;;;;;5.43;3.92;;;22.00;51.60;;;;;;5244118;28;20059;-55
2021/11/13 01:39:17;;;;;;;4.53;3.90;;;22.10;51.70;;;;;;5243101;28;20039;-56
2021/11/13 01:41:51;;;;;;;5.18;3.88;;;22.10;51.60;;;;;;5247153;28;20051;-58
2021/11/13 01:44:23;;;;;;;4.85;3.85;;;22.10;51.30;;;;;;5247646;28;20039;-51
2021/11/13 01:46:55;;;;;;;4.10;3.70;;;22.00;51.50;;;;;;5229359;28;20051;-53
2021/11/13 01:49:28;;;;;;;6.30;3.65;;;22.00;51.50;;;;;;5239691;28;20152;-55
2021/11/13 01:52:06;;;;;;;5.40;3.50;;;22.00;51.50;;;;;;5257235;28;20048;-49
2021/11/13 01:54:40;;;;;;;4.32;3.70;;;22.00;51.40;;;;;;5248637;28;20055;-54
2021/11/13 01:57:21;;;;;;;4.00;3.28;;;22.10;51.50;;;;;;5246903;28;20044;-48
2021/11/13 01:59:53;;;;;;;4.10;3.70;;;22.00;51.40;;;;;;5234916;28;20040;-53
2021/11/13 02:02:26;;;;;;;6.05;4.03;;;22.00;51.30;;;;;;5244616;28;20056;-53
2021/11/13 02:04:58;;;;;;;9.57;4.03;;;22.00;51.30;;;;;;5223754;28;20047;-51
2021/11/13 02:07:31;;;;;;;4.18;3.30;;;22.00;51.30;;;;;;5220697;28;20063;-51
2021/11/13 02:10:08;;;;;;;6.30;4.07;;;22.00;51.30;;;;;;5241381;28;20043;-58
2021/11/13 02:12:40;;;;;;;5.53;3.55;;;22.00;51.30;;;;;;5235030;28;20515;-49
2021/11/13 02:15:13;;;;;;;6.80;3.45;;;22.00;51.30;;;;;;5259059;28;20043;-51
2021/11/13 02:17:46;;;;;;;4.50;3.73;;;22.00;51.30;;;;;;5244965;28;20039;-52
2021/11/13 02:20:36;;;;;;;4.70;3.60;;;22.00;51.30;;;;;;5235654;28;20051;-53
2021/11/13 02:23:23;;;;;;;3.92;3.47;;;22.00;51.30;;;;;;5261574;28;20066;-52
2021/11/13 02:25:56;;;;;;;5.22;3.45;;;22.00;51.30;;;;;;5256975;28;20050;-58
2021/11/13 02:28:29;;;;;;;5.87;3.73;;;22.00;51.20;;;;;;5255372;28;20040;-49
2021/11/13 02:31:05;;;;;;;3.22;2.92;;;22.00;51.30;;;;;;5249858;28;20043;-52
2021/11/13 02:33:38;;;;;;;5.35;3.50;;;22.00;51.20;;;;;;5258892;28;20048;-53
2021/11/13 02:36:13;;;;;;;6.20;3.20;;;22.00;51.20;;;;;;5254222;28;20289;-52
2021/11/13 02:38:45;;;;;;;3.40;2.88;;;22.00;51.20;;;;;;5249163;28;20040;-50
2021/11/13 02:41:19;;;;;;;3.67;3.30;;;22.00;51.20;;;;;;5260492;28;20447;-53
2021/11/13 02:43:53;;;;;;;4.28;3.47;;;22.00;51.20;;;;;;5255106;28;20293;-52
2021/11/13 02:46:27;;;;;;;4.95;3.65;;;22.00;51.20;;;;;;5255967;27;20051;-52
2021/11/13 02:49:03;;;;;;;9.20;4.15;;;22.00;51.20;;;;;;5254582;28;20062;-55
2021/11/13 02:51:36;;;;;;;9.48;3.17;;;22.00;51.20;;;;;;5260427;28;20055;-55
2021/11/13 02:54:27;;;;;;;6.43;3.80;;;22.00;51.20;;;;;;5252324;28;20513;-54
2021/11/13 02:57:00;;;;;;;3.63;3.20;;;22.00;51.10;;;;;;5242607;28;20039;-50
2021/11/13 02:59:32;;;;;;;4.22;3.13;;;22.00;51.10;;;;;;5262477;28;20036;-51
2021/11/13 03:02:04;;;;;;;6.57;2.90;;;22.00;51.10;;;;;;5259835;27;20044;-52
2021/11/13 03:04:37;;;;;;;3.40;3.10;;;22.00;51.00;;;;;;5260191;28;20058;-59
2021/11/13 03:07:10;;;;;;;;;;;22.00;51.00;;;;;;5263417;28;20059;-51
2021/11/13 03:09:43;;;;;;;4.32;2.80;;;21.90;50.90;;;;;;5257907;28;19935;-57
2021/11/13 03:12:15;;;;;;;6.75;3.50;;;21.90;51.00;;;;;;5249009;28;20060;-53
2021/11/13 03:14:47;;;;;;;3.90;2.97;;;21.90;50.90;;;;;;5256891;27;20062;-54
2021/11/13 03:17:20;;;;;;;3.80;3.40;;;21.90;51.00;;;;;;5259554;28;20036;-55
2021/11/13 03:19:52;;;;;;;3.63;3.03;;;21.90;50.90;;;;;;5260906;28;20046;-56
2021/11/13 03:22:25;;;;;;;3.70;3.08;;;21.90;50.90;;;;;;5259636;28;20043;-51
2021/11/13 03:24:58;;;;;;;3.28;2.97;;;21.90;50.80;;;;;;5262130;28;20758;-56
2021/11/13 03:27:31;;;;;;;7.23;3.80;;;21.90;50.90;;;;;;5241016;28;20044;-52
2021/11/13 03:30:06;;;;;;;3.05;2.75;;;21.90;50.80;;;;;;5253237;28;20302;-59
2021/11/13 03:32:39;;;;;;;3.17;2.67;;;21.90;50.80;;;;;;5265928;28;20651;-53
2021/11/13 03:35:16;;;;;;;3.15;2.85;;;21.90;50.80;;;;;;5257401;28;20508;-58
2021/11/13 03:38:13;;;;;;;5.72;3.08;;;21.90;50.70;;;;;;5257693;27;20681;-54
2021/11/13 03:40:48;;;;;;;3.55;3.03;;;21.90;50.70;;;;;;5264494;28;20066;-54
2021/11/13 03:43:22;;;;;;;3.17;2.80;;;21.90;50.70;;;;;;5263884;28;20050;-51
2021/11/13 03:45:55;;;;;;;3.55;2.83;;;21.90;50.80;;;;;;5266647;28;20060;-49
2021/11/13 03:48:28;;;;;;;3.20;2.90;;;21.90;50.80;;;;;;5245516;28;20059;-49
2021/11/13 03:51:01;;;;;;;4.22;3.03;;;21.90;50.70;;;;;;5233057;28;20040;-54
2021/11/13 03:53:33;;;;;;;3.20;2.90;;;21.90;50.80;;;;;;5242467;28;20048;-51
2021/11/13 03:56:06;;;;;;;3.25;2.95;;;21.90;50.70;;;;;;5236806;28;20559;-54
2021/11/13 03:58:38;;;;;;;3.72;3.17;;;21.90;50.70;;;;;;5233662;27;20040;-53
2021/11/13 04:01:11;;;;;;;3.40;2.95;;;21.90;50.80;;;;;;5232507;28;20614;-51
2021/11/13 04:03:43;;;;;;;5.75;3.08;;;21.90;50.70;;;;;;5231349;28;20048;-57
2021/11/13 04:06:16;;;;;;;5.28;3.20;;;21.90;50.70;;;;;;5242284;28;20058;-54
2021/11/13 04:08:48;;;;;;;6.03;3.22;;;21.90;50.70;;;;;;5236520;28;20079;-56
2021/11/13 04:11:21;;;;;;;4.75;3.20;;;21.90;50.70;;;;;;5223353;28;20524;-56
2021/11/13 04:13:53;;;;;;;5.13;2.80;;;21.90;50.70;;;;;;5238283;28;20044;-57
2021/11/13 04:16:26;;;;;;;4.13;2.67;;;21.90;50.70;;;;;;5231937;28;20048;-53
2021/11/13 04:19:17;;;;;;;3.10;2.67;;;21.90;50.80;;;;;;5234807;28;20041;-57
2021/11/13 04:21:49;;;;;;;3.67;3.03;;;21.90;50.80;;;;;;5235785;28;20040;-51
2021/11/13 04:24:22;;;;;;;3.75;3.28;;;21.90;50.80;;;;;;5232236;28;20039;-55
2021/11/13 04:26:54;;;;;;;3.10;2.77;;;21.90;50.80;;;;;;5237334;28;21025;-55
2021/11/13 04:29:27;;;;;;;3.28;2.97;;;21.90;50.80;;;;;;5233548;28;20407;-57
2021/11/13 04:31:59;;;;;;;15.40;3.22;;;21.90;50.80;;;;;;5233925;28;20074;-51
2021/11/13 04:34:42;;;;;;;3.53;3.13;;;21.90;50.80;;;;;;5230141;28;20424;-50
2021/11/13 04:37:18;;;;;;;4.38;3.10;;;21.90;50.80;;;;;;5235650;28;20048;-52
2021/11/13 04:39:51;;;;;;;5.70;3.45;;;21.90;50.80;;;;;;5245373;28;20040;-51
2021/11/13 04:42:24;;;;;;;3.47;3.10;;;21.90;50.70;;;;;;5255752;27;20048;-50
2021/11/13 04:44:56;;;;;;;4.70;3.22;;;21.90;50.80;;;;;;5260436;28;20405;-57
2021/11/13 04:47:31;;;;;;;3.42;2.90;;;21.90;50.70;;;;;;5258903;28;20515;-52
2021/11/13 04:50:05;;;;;;;3.40;2.80;;;21.90;50.70;;;;;;5259647;28;20044;-54
2021/11/13 04:52:38;;;;;;;4.38;2.80;;;21.80;50.60;;;;;;5264739;28;20435;-53
2021/11/13 04:55:11;;;;;;;5.95;2.90;;;21.90;50.70;;;;;;5222392;28;20051;-53
2021/11/13 04:57:45;;;;;;;4.15;3.13;;;21.80;50.70;;;;;;5263166;28;20048;-55
2021/11/13 05:00:24;;;;;;;4.15;3.15;;;21.80;50.70;;;;;;5260114;28;20048;-54
2021/11/13 05:02:58;;;;;;;6.43;2.80;;;21.80;50.70;;;;;;5255842;28;20051;-53
2021/11/13 05:05:30;;;;;;;4.15;3.13;;;21.80;50.70;;;;;;5253037;28;20106;-53
2021/11/13 05:08:03;;;;;;;5.38;3.00;;;21.80;50.70;;;;;;5256081;28;20052;-59
2021/11/13 05:10:35;;;;;;;3.47;2.77;;;21.80;50.70;;;;;;5260386;28;20056;-55
2021/11/13 05:13:08;;;;;;;3.75;2.92;;;21.80;50.70;;;;;;5244283;28;20063;-58
2021/11/13 05:15:40;;;;;;;5.50;2.92;;;21.80;50.80;;;;;;5248504;27;20578;-54
2021/11/13 05:18:13;;;;;;;8.07;2.70;;;21.80;50.80;;;;;;5256504;28;20040;-53
2021/11/13 05:20:45;;;;;;;3.58;2.72;;;21.80;51.50;;;;;;5247885;27;20044;-54
2021/11/13 05:23:17;;;;;;;3.72;2.67;;;21.90;51.00;;;;;;5258947;28;20408;-56
2021/11/13 05:25:50;;;;;;;3.10;2.80;;;21.80;51.00;;;;;;5259084;28;20051;-59
2021/11/13 05:28:23;;;;;;;4.25;2.70;;;21.80;51.00;;;;;;5264570;28;20047;-52
2021/11/13 05:30:56;;;;;;;3.40;2.33;;;21.80;51.10;;;;;;5256749;28;20059;-54
2021/11/13 05:33:29;;;;;;;2.92;2.70;;;21.80;51.20;;;;;;5260953;28;20050;-55
2021/11/13 05:36:01;;;;;;;2.88;2.58;;;21.90;51.30;;;;;;5258862;28;20052;-54
2021/11/13 05:38:34;;;;;;;2.72;2.50;;;21.90;51.40;;;;;;5258439;28;20047;-55
2021/11/13 05:41:06;;;;;;;2.60;2.40;;;21.90;51.30;;;;;;5247128;28;20044;-52
2021/11/13 05:43:39;;;;;;;3.53;2.55;;;21.90;51.40;;;;;;5248807;28;20408;-56
2021/11/13 05:46:11;;;;;;;4.70;2.45;;;22.00;51.40;;;;;;5258834;28;20052;-53
2021/11/13 05:48:44;;;;;;;4.38;2.58;;;22.00;51.50;;;;;;5258749;28;20058;-58
2021/11/13 05:51:17;;;;;;;3.40;2.58;;;22.00;51.60;;;;;;5256419;28;20052;-54
2021/11/13 05:53:49;;;;;;;8.23;2.85;;;22.00;51.60;;;;;;5251965;28;20051;-53
2021/11/13 05:56:22;;;;;;;5.45;2.75;;;22.00;51.60;;;;;;5252468;28;20649;-55
2021/11/13 05:59:21;;;;;;;5.95;2.67;;;22.10;51.70;;;;;;5256569;28;20051;-53
2021/11/13 06:01:53;;;;;;;5.10;2.90;;;22.10;51.60;;;;;;5254049;28;20047;-58
2021/11/13 06:04:26;;;;;;;5.78;2.55;;;22.10;51.70;;;;;;5253823;28;20039;-57
2021/11/13 06:07:05;;;;;;;6.95;2.58;;;22.10;51.80;;;;;;5245890;28;20047;-55
2021/11/13 06:09:37;;;;;;;4.78;2.95;;;22.10;51.80;;;;;;5250995;28;20617;-55
2021/11/13 06:12:09;;;;;;;3.75;3.05;;;22.20;51.90;;;;;;5254158;28;20058;-57
2021/11/13 06:14:42;;;;;;;7.18;3.00;;;22.10;51.70;;;;;;5250252;28;20054;-50
2021/11/13 06:17:15;;;;;;;6.28;2.90;;;22.20;51.80;;;;;;5231131;28;20056;-59
2021/11/13 06:19:47;;;;;;;6.47;2.83;;;22.20;51.90;;;;;;5249332;28;20407;-57
2021/11/13 06:22:20;;;;;;;5.03;2.75;;;22.20;51.90;;;;;;5258238;28;20052;-58
2021/11/13 06:24:53;;;;;;;5.78;2.67;;;22.20;52.10;;;;;;5250565;28;20048;-57
2021/11/13 06:27:26;;;;;;;10.00;2.53;;;22.20;52.10;;;;;;5257031;28;20040;-57
2021/11/13 06:29:58;;;;;;;11.52;2.35;;;22.20;52.10;;;;;;5243663;28;20404;-54
2021/11/13 06:32:30;;;;;;;8.35;2.92;;;22.20;52.00;;;;;;5255463;28;20419;-52
2021/11/13 06:35:04;;;;;;;4.85;2.75;;;22.20;51.90;;;;;;5251022;28;20059;-60
2021/11/13 06:37:37;;;;;;;7.63;2.97;;;22.20;52.00;;;;;;5257072;28;20055;-57
2021/11/13 06:40:11;;;;;;;;;;;22.20;52.10;;;;;;5231955;28;20051;-54
2021/11/13 06:42:51;;;;;;;14.52;3.50;;;22.20;52.30;;;;;;5253559;28;19923;-56
2021/11/13 06:45:24;;;;;;;7.87;2.97;;;22.20;52.20;;;;;;5246640;28;20044;-51
2021/11/13 06:47:56;;;;;;;11.55;3.10;;;22.20;52.20;;;;;;5248390;28;20431;-58
2021/11/13 06:50:29;;;;;;;7.95;3.03;;;22.30;52.30;;;;;;5247247;28;20051;-54
2021/11/13 06:53:02;;;;;;;8.95;2.85;;;22.20;52.20;;;;;;5248929;28;20404;-56
2021/11/13 06:55:34;;;;;;;;;;;22.30;52.20;;;;;;5247249;28;20056;-52
2021/11/13 06:58:07;;;;;;;7.53;3.45;;;22.20;52.20;;;;;;5247385;28;19927;-58
2021/11/13 07:00:39;;;;;;;11.07;3.17;;;22.30;52.30;;;;;;5247644;28;20051;-58
2021/11/13 07:03:12;;;;;;;6.70;3.20;;;22.30;52.30;;;;;;5238597;28;20538;-53
2021/11/13 07:05:44;;;;;;;4.72;2.53;;;22.30;52.30;;;;;;5238836;28;20056;-52
2021/11/13 07:08:17;;;;;;;13.32;2.58;;;22.30;52.20;;;;;;5246281;28;20052;-54
2021/11/13 07:10:52;;;;;;;10.57;3.03;;;22.30;52.30;;;;;;5220260;28;20519;-60
2021/11/13 07:13:26;;;;;;;7.88;2.92;;;22.30;52.20;;;;;;5237547;28;20048;-57
2021/11/13 07:15:59;;;;;;;7.40;2.28;;;22.30;52.30;;;;;;5249193;28;20055;-60
2021/11/13 07:18:31;;;;;;;5.90;3.00;;;22.30;52.20;;;;;;5233158;28;20055;-57
2021/11/13 07:21:06;;;;;;;5.43;2.80;;;22.30;52.30;;;;;;5228012;28;20039;-60
2021/11/13 07:23:49;;;;;;;5.50;2.65;;;22.30;52.20;;;;;;5242838;28;20047;-60
2021/11/13 07:26:21;;;;;;;8.07;2.72;;;22.40;52.20;;;;;;5237161;28;20537;-57
2021/11/13 07:29:01;;;;;;;7.03;2.70;;;22.40;52.20;;;;;;5240710;28;20051;-54
2021/11/13 07:31:34;;;;;;;6.80;2.40;;;22.30;52.10;;;;;;5258952;28;20047;-55
2021/11/13 07:34:06;;;;;;;6.35;2.33;;;22.40;52.20;;;;;;5248196;28;20052;-58
2021/11/13 07:36:39;;;;;;;4.63;2.40;;;22.40;52.20;;;;;;5239463;28;20404;-51
2021/11/13 07:39:11;;;;;;;9.68;2.65;;;22.40;52.20;;;;;;5256406;27;20043;-52
2021/11/13 07:41:44;;;;;;;12.68;3.08;;;22.40;52.30;;;;;;5238291;28;20055;-56
2021/11/13 07:44:16;;;;;;;6.75;2.75;;;22.40;52.30;;;;;;5257934;28;20055;-56
2021/11/13 07:46:49;;;;;;;10.65;3.00;;;22.40;52.40;;;;;;5239432;28;20554;-56
2021/11/13 07:49:22;;;;;;;9.52;3.17;;;22.40;52.50;;;;;;5248424;28;20056;-56
2021/11/13 07:51:55;;;;;;;9.10;2.95;;;22.40;52.50;;;;;;5250127;28;20043;-53
2021/11/13 07:54:45;;;;;;;8.88;2.53;;;22.40;52.40;;;;;;5246132;28;20055;-59
2021/11/13 07:57:18;;;;;;;6.88;2.90;;;22.40;52.40;;;;;;5229565;28;20608;-60
2021/11/13 07:59:51;;;;;;;15.30;3.88;;;22.40;52.40;;;;;;5227753;28;20567;-56
2021/11/13 08:02:23;;;;;;;10.18;3.15;;;22.40;52.50;;;;;;5231211;28;20523;-56
2021/11/13 08:04:55;;;;;;;16.75;2.78;;;22.40;52.50;;;;;;5241618;28;20081;-55
2021/11/13 08:07:28;;;;;;;19.00;3.20;;;22.50;52.60;;;;;;5233848;28;20622;-60
2021/11/13 08:10:00;;;;;;;11.67;2.63;;;22.50;52.50;;;;;;5239227;28;21283;-58
2021/11/13 08:12:33;;;;;;;12.20;2.70;;;22.50;52.40;;;;;;5243613;28;20043;-54
2021/11/13 08:15:07;;;;;;;25.17;3.75;;;22.50;52.30;;;;;;5235354;28;20051;-52
2021/11/13 08:17:41;;;;;;;;;;;22.50;52.20;;;;;;5233900;28;20047;-52
2021/11/13 08:20:14;;;;;;;9.00;3.35;;;22.50;52.20;;;;;;5230385;28;19924;-54
2021/11/13 08:22:47;;;;;;;;;;;22.50;52.20;;;;;;5226539;28;20047;-55
2021/11/13 08:25:20;;;;;;;9.93;4.25;;;22.40;52.10;;;;;;5237580;28;19928;-57
2021/11/13 08:27:52;;;;;;;9.77;4.18;;;22.50;52.20;;;;;;5226906;28;20479;-56
2021/11/13 08:30:28;;;;;;;9.73;3.95;;;22.50;52.20;;;;;;5227197;28;20064;-57
2021/11/13 08:33:20;;;;;;;19.45;5.70;;;22.50;52.20;;;;;;5247386;28;20059;-58
2021/11/13 08:35:52;;;;;;;20.53;5.70;;;22.50;52.40;;;;;;5204066;28;21127;-56
2021/11/13 08:38:43;;;;;;;14.93;5.30;;;22.50;52.50;;;;;;5227728;28;20320;-51
2021/11/13 08:41:15;;;;;;;19.30;5.95;;;22.60;52.60;;;;;;5237623;28;20075;-52
2021/11/13 08:43:49;;;;;;;18.98;6.20;;;22.60;52.90;;;;;;5211007;28;20051;-53
2021/11/13 08:46:21;;;;;;;22.65;6.10;;;22.60;53.10;;;;;;5210926;28;20519;-49
2021/11/13 08:48:54;;;;;;;17.33;5.78;;;22.60;53.00;;;;;;5227336;28;20083;-53
2021/11/13 08:51:26;;;;;;;21.23;6.25;;;22.60;52.70;;;;;;5225320;28;20051;-52
2021/11/13 08:53:59;;;;;;;16.48;6.22;;;22.60;52.60;;;;;;5246574;28;20605;-54
2021/11/13 08:56:31;;;;;;;13.50;6.63;;;22.60;52.50;;;;;;5249888;28;20599;-52
2021/11/13 08:59:06;;;;;;;27.30;7.45;;;22.60;52.40;;;;;;5249673;28;20048;-55
2021/11/13 09:01:39;;;;;;;14.20;7.80;;;22.60;52.30;;;;;;5206810;28;20039;-54
2021/11/13 09:04:30;;;;;;;14.50;6.55;;;22.60;52.90;;;;;;5241759;28;20048;-55
2021/11/13 09:07:06;;;;;;;15.97;6.70;;;22.60;52.80;;;;;;5244555;28;20059;-55
2021/11/13 09:09:39;;;;;;;26.05;8.40;;;22.60;52.10;;;;;;5240527;28;20503;-56
2021/11/13 09:12:14;;;;;;;;;;;22.60;52.10;;;;;;5242138;28;20047;-55
2021/11/13 09:14:46;;;;;;;17.88;7.07;;;22.50;51.90;;;;;;5219049;28;19942;-54
2021/11/13 09:17:22;;;;;;;14.48;6.75;;;22.60;52.10;;;;;;5247763;28;20055;-55
2021/11/13 09:19:55;;;;;;;21.40;8.35;;;22.60;52.10;;;;;;5245797;28;20083;-55
2021/11/13 09:22:27;;;;;;;17.10;7.30;;;22.60;52.10;;;;;;5246320;28;20236;-54
2021/11/13 09:25:01;;;;;;;22.63;6.90;;;22.60;52.00;;;;;;5243644;28;20040;-57
2021/11/13 09:27:35;;;;;;;23.02;7.18;;;22.60;52.00;;;;;;5243316;28;20046;-56
2021/11/13 09:30:14;;;;;;;14.25;6.85;;;22.60;52.00;;;;;;5241638;28;20040;-60
2021/11/13 09:32:48;;;;;;;24.83;7.43;;;22.60;52.10;;;;;;5237895;28;20232;-61
2021/11/13 09:35:21;;;;;;;20.20;7.95;;;22.70;52.20;;;;;;5244179;28;20046;-55
2021/11/13 09:37:56;;;;;;;19.23;7.57;;;22.60;52.20;;;;;;5229049;28;20220;-55
2021/11/13 09:40:42;;;;;;;15.38;6.70;;;22.60;52.10;;;;;;5224016;28;20055;-54
2021/11/13 09:43:16;;;;;;;22.05;6.78;;;22.70;52.20;;;;;;5232652;28;20054;-54
2021/11/13 09:45:49;;;;;;;19.45;6.38;;;22.60;52.10;;;;;;5235379;28;25946;-57
2021/11/13 09:48:22;;;;;;;21.23;7.45;;;22.60;52.10;;;;;;5237565;28;20063;-50
2021/11/13 09:50:54;;;;;;;15.68;6.40;;;22.70;52.20;;;;;;5232043;28;20415;-49
2021/11/13 09:53:28;;;;;;;18.50;7.25;;;22.70;52.20;;;;;;5237050;28;20524;-50
2021/11/13 09:56:01;;;;;;;18.02;7.82;;;22.60;52.20;;;;;;5251632;28;20047;-51
2021/11/13 09:58:33;;;;;;;22.10;6.93;;;22.60;52.20;;;;;;5213426;28;20430;-52
2021/11/13 10:01:07;;;;;;;18.42;6.07;;;22.60;52.20;;;;;;5233429;28;20385;-55
2021/11/13 10:03:40;;;;;;;;;;;22.60;52.20;;;;;;5237512;28;20066;-50
2021/11/13 10:06:13;;;;;;;19.38;6.30;;;22.60;52.20;;;;;;5227181;28;19927;-48
2021/11/13 10:08:47;;;;;;;;;;;22.60;52.30;;;;;;5191551;28;20052;-55
2021/11/13 10:11:23;;;;;;;17.35;6.07;;;22.50;52.20;;;;;;5220783;28;19951;-58
2021/11/13 10:13:58;;;;;;;15.52;6.00;;;22.60;52.30;;;;;;5241955;28;20043;-50
2021/11/13 10:16:33;;;;;;;14.40;5.90;;;22.60;52.30;;;;;;5234474;28;20044;-53
2021/11/13 10:19:12;;;;;;;17.77;6.32;;;22.60;52.30;;;;;;5238336;28;20043;-52
2021/11/13 10:21:51;;;;;;;13.40;6.10;;;22.60;52.30;;;;;;5227478;28;20043;-50
2021/11/13 10:24:49;;;;;;;16.30;5.97;;;22.60;52.20;;;;;;5249888;28;20043;-50
2021/11/13 10:27:23;;;;;;;13.85;5.95;;;22.60;52.10;;;;;;5252019;28;20047;-58
2021/11/13 10:29:56;;;;;;;17.25;5.70;;;22.60;52.10;;;;;;5251894;28;20495;-55
2021/11/13 10:32:29;;;;;;;13.73;5.43;;;22.60;52.00;;;;;;5242792;28;20447;-55
2021/11/13 10:35:01;;;;;;;18.80;6.32;;;22.60;52.00;;;;;;5248114;28;20058;-55
2021/11/13 10:37:34;;;;;;;12.03;5.47;;;22.60;52.00;;;;;;5211211;28;20055;-53
2021/11/13 10:40:28;;;;;;;12.93;6.03;;;22.60;52.00;;;;;;5242581;28;20547;-53
2021/11/13 10:43:04;;;;;;;13.73;5.03;;;22.60;51.90;;;;;;5253561;28;20052;-53
2021/11/13 10:45:36;;;;;;;15.15;5.28;;;22.60;52.00;;;;;;5241930;28;20497;-49
2021/11/13 10:48:20;;;;;;;12.13;5.45;;;22.60;51.90;;;;;;5249580;28;20044;-54
2021/11/13 10:51:01;;;;;;;10.23;5.32;;;22.60;51.90;;;;;;5251173;28;20043;-51
2021/11/13 10:53:35;;;;;;;15.00;5.22;;;22.60;51.90;;;;;;5250981;28;20051;-55
2021/11/13 10:56:12;;;;;;;13.73;5.13;;;22.60;51.90;;;;;;5259493;28;20043;-53
2021/11/13 10:58:52;;;;;;;10.65;4.97;;;22.60;51.90;;;;;;5236770;28;20054;-49
2021/11/13 11:01:31;;;;;;;13.60;5.00;;;22.60;51.90;;;;;;5247412;28;20062;-54
2021/11/13 11:04:08;;;;;;;8.27;4.70;;;22.60;51.90;;;;;;5256660;28;20040;-56
2021/11/13 11:06:47;;;;;;;14.68;6.43;;;22.60;51.90;;;;;;5240352;28;20043;-51
2021/11/13 11:09:25;;;;;;;11.23;5.35;;;22.60;51.90;;;;;;5256101;28;20516;-54
2021/11/13 11:12:01;;;;;;;10.75;4.05;;;22.60;51.90;;;;;;5253618;28;20357;-53
2021/11/13 11:14:34;;;;;;;8.70;3.97;;;22.60;51.90;;;;;;5252392;28;20415;-55
2021/11/13 11:17:12;;;;;;;12.10;5.40;;;22.60;51.90;;;;;;5253609;28;20043;-50
2021/11/13 11:20:13;;;;;;;8.55;4.18;;;22.60;51.90;;;;;;5251619;28;20637;-53
2021/11/13 11:22:46;;;;;;;9.90;4.82;;;22.60;51.90;;;;;;5259474;28;20050;-56
2021/11/13 11:25:18;;;;;;;10.40;4.97;;;22.60;51.90;;;;;;5261484;28;20098;-54
2021/11/13 11:27:51;;;;;;;9.10;4.90;;;22.60;51.90;;;;;;5244556;28;20048;-54
2021/11/13 11:30:25;;;;;;;10.75;4.70;;;22.60;51.90;;;;;;5260036;28;20051;-57
2021/11/13 11:32:59;;;;;;;8.48;4.28;;;22.60;51.90;;;;;;5258834;28;20051;-57
2021/11/13 11:35:39;;;;;;;9.32;4.10;;;22.60;51.90;;;;;;5256445;28;20052;-55
2021/11/13 11:38:12;;;;;;;6.72;4.38;;;22.60;51.90;;;;;;5226450;28;20055;-56
2021/11/13 11:40:47;;;;;;;6.38;3.90;;;22.60;51.90;;;;;;5236554;28;20265;-54
2021/11/13 11:43:19;;;;;;;9.18;4.22;;;22.60;51.90;;;;;;5243682;28;20058;-60
2021/11/13 11:45:52;;;;;;;9.02;4.75;;;22.60;51.90;;;;;;5245566;27;20059;-55
2021/11/13 11:48:25;;;;;;;16.63;5.80;;;22.60;51.90;;;;;;5248492;28;20044;-59
2021/11/13 11:50:58;;;;;;;7.05;3.88;;;22.70;52.60;;;;;;5251769;28;20047;-48
2021/11/13 11:53:30;;;;;;;13.87;4.60;;;22.60;51.90;;;;;;4538767;28;10000564;-55
2021/11/13 11:56:03;;;;;;;8.13;4.60;;;22.60;52.10;;;;;;5238320;28;20420;-54
2021/11/13 11:58:36;;;;;;;8.73;4.00;;;22.60;52.10;;;;;;5251965;28;20807;-48
2021/11/13 12:01:28;;;;;;;11.40;4.87;;;22.60;52.10;;;;;;5248462;28;20063;-52
2021/11/13 12:04:14;;;;;;;8.70;4.45;;;22.60;52.10;;;;;;5235081;28;20039;-59
2021/11/13 12:06:51;;;;;;;12.38;4.45;;;22.60;51.60;;;;;;5236044;28;20899;-52
2021/11/13 12:09:25;;;;;;;9.80;6.63;;;22.60;52.30;;;;;;5234918;28;21347;-52
2021/11/13 12:12:14;;;;;;;;;;;22.60;52.40;;;;;;5226577;28;20562;-49
2021/11/13 12:14:47;;;;;;;17.08;9.80;;;22.60;52.50;;;;;;5238884;28;19930;-59
2021/11/13 12:17:33;;;;;;;36.20;17.35;;;22.60;52.50;;;;;;5236120;28;20048;-56
2021/11/13 12:20:11;;;;;;;30.55;20.45;;;22.60;52.60;;;;;;5228505;28;20047;-48
2021/11/13 12:22:56;;;;;;;44.63;29.33;;;22.60;52.70;;;;;;5237734;27;20074;-56
2021/11/13 12:25:40;;;;;;;50.13;34.42;;;22.60;52.80;;;;;;5237095;28;20040;-55
2021/11/13 12:28:18;;;;;;;;;;;22.60;53.00;;;;;;5216076;28;20428;-58
2021/11/13 12:31:06;;;;;;;50.53;36.00;;;22.60;53.10;;;;;;5227615;28;19935;-57
2021/11/13 12:33:41;;;;;;;52.30;37.13;;;22.50;53.10;;;;;;5243305;28;20508;-53
2021/11/13 12:36:59;;;;;;;48.03;34.28;;;22.60;53.10;;;;;;5242977;28;20051;-51
2021/11/13 12:39:38;;;;;;;47.95;34.03;;;22.60;53.20;;;;;;5232845;28;20687;-54
2021/11/13 12:42:14;;;;;;;46.03;34.22;;;22.60;54.00;;;;;;5230939;28;20043;-58
2021/11/13 12:44:48;;;;;;;45.83;32.97;;;22.60;53.30;;;;;;5227375;28;20059;-55
2021/11/13 12:47:22;;;;;;;45.88;31.60;;;22.60;53.30;;;;;;5228625;28;20055;-57
2021/11/13 12:49:59;;;;;;;48.53;31.77;;;22.60;53.40;;;;;;5210479;28;20040;-53
2021/11/13 12:52:34;;;;;;;47.17;30.08;;;22.60;53.40;;;;;;5241624;28;20044;-53
2021/11/13 12:55:19;;;;;;;44.60;29.20;;;22.60;53.40;;;;;;5232697;28;20043;-53
2021/11/13 12:58:10;;;;;;;42.92;27.73;;;22.60;53.40;;;;;;5236414;28;20530;-53
2021/11/13 13:00:53;;;;;;;41.15;25.67;;;22.60;53.30;;;;;;5244541;28;20063;-53
2021/11/13 13:03:28;;;;;;;38.63;25.92;;;22.60;53.30;;;;;;5251659;28;20175;-54
2021/11/13 13:06:08;;;;;;;41.97;24.63;;;22.60;53.30;;;;;;5221913;27;20411;-53
2021/11/13 13:08:42;;;;;;;36.58;23.92;;;22.60;53.30;;;;;;5229440;28;20047;-57
2021/11/13 13:11:15;;;;;;;33.63;23.52;;;22.60;53.30;;;;;;5210488;28;20047;-59
2021/11/13 13:13:48;;;;;;;34.97;21.77;;;22.60;53.90;;;;;;5229609;28;20531;-56
2021/11/13 13:16:27;;;;;;;34.22;21.10;;;22.60;54.00;;;;;;5210388;28;20048;-53
2021/11/13 13:19:00;;;;;;;32.95;20.23;;;22.60;53.30;;;;;;5201203;28;20508;-58
2021/11/13 13:21:37;;;;;;;28.65;19.25;;;22.60;53.30;;;;;;5227807;28;20044;-55
2021/11/13 13:24:15;;;;;;;27.55;19.20;;;22.60;53.30;;;;;;5226651;28;20519;-60
2021/11/13 13:26:48;;;;;;;31.25;18.35;;;22.60;53.30;;;;;;5228861;28;20377;-55